LATI/TIA METAR and TAF weather

Enter ICAO airport designator
Station Type Date Time Source
LATI METAR 2021/05/13 06:50 UTC NOAA

LATI 130650Z 18011KT 9999 BKN019 18/13 Q1009 NOSIG


Station Type Date Time Source
LATI Decoded METAR 2021/05/13 06:50 UTC NOAA

Tirana, Albania (LATI) 41-20N 019-47E 90M
May 13, 2021 - 02:50 AM EDT / 2021.05.13 0650 UTC
Wind: from the S (180 degrees) at 13 MPH (11 KT):0
Visibility: greater than 7 mile(s):0
Sky conditions: mostly cloudy
Temperature: 64 F (18 C)
Dew Point: 55 F (13 C)
Relative Humidity: 72%
Pressure (altimeter): 29.80 in. Hg (1009 hPa)
ob: LATI 130650Z 18011KT 9999 BKN019 18/13 Q1009 NOSIG
cycle: 7

Station Type Date Time Source
LATI TAF 2021/05/13 06:07 UTC NOAA

TAF LATI 130500Z 1306/1406 VRB04KT 9999 FEW050 SCT080 TX23/1312Z TN12/1403Z
TEMPO 1310/1318 24010KT FEW040TCU BKN060
TEMPO 1318/1406 RA SCT020 BKN040

Example: see airport list